Latest Weather Observations for Kuitpo

IDS60801

Issued at 12:11 pm CST Thursday 1 October 2020 (issued every 10 minutes, with the page automatically refreshed every 10 minutes)

About weather observations | Map of weather stations | Latest weather observations for SA | Other Formats
Station Details ID: 023887 Name: KUITPO FOREST RESERVE Lat: -35.17 Lon: 138.68 Height: 365.0 m
Data from the previous 72 hours. | See also: Recent months at Kuitpo
Date/Time
CST
Temp
°C
App
Temp
°C
Dew
Point
°C
Rel
Hum
%
Delta-T
°C
Wind Press
QNH
hPa
Press
MSL
hPa
Rain since
9am
mm
Dir  Spd
km/h
Gust
km/h
Spd
kts
Gust
kts
01/12:00pm 14.3 9.9 7.4 63 3.5 NW 20 37 11 20 1016.6 1016.2 0.0
01/11:30am 14.1 10.2 8.7 70 2.8 NW 19 28 10 15 1016.7 1016.3 0.0
01/11:00am 13.2 9.1 7.9 70 2.7 NW 19 32 10 17 1017.0 1016.6 0.0
01/10:30am 12.6 8.4 7.3 70 2.6 NW 19 32 10 17 1017.1 1016.7 0.0
01/10:00am 12.2 8.3 7.3 72 2.4 NW 17 33 9 18 1017.3 1016.9 0.0
01/09:30am 11.4 7.7 6.5 72 2.4 NW 15 24 8 13 1017.1 1016.7 0.0
01/09:00am 11.5 8.4 7.2 75 2.1 NW 13 20 7 11 1017.3 1017.2 4.6
01/08:30am 10.3 5.9 6.6 78 1.8 NW 19 28 10 15 1016.8 1016.7 4.6
01/08:00am 10.0 6.9 7.3 83 1.3 NW 13 22 7 12 1016.7 1016.6 4.6
01/07:30am 9.2 5.6 6.6 84 1.2 NW 15 20 8 11 1016.6 1016.5 4.6
01/07:00am 8.6 5.3 6.6 87 0.9 NW 13 20 7 11 1016.2 1016.0 4.6
01/06:30am 7.9 4.6 6.2 89 0.8 NNW 13 17 7 9 1015.7 1015.6 4.6
01/06:00am 7.9 4.1 6.0 88 0.9 NW 15 20 8 11 1015.7 1015.6 4.6
01/05:30am 7.8 4.4 6.1 89 0.8 NW 13 20 7 11 1015.5 1015.4 4.6
01/05:00am 8.0 4.3 6.1 88 0.9 NW 15 22 8 12 1015.3 1015.2 4.6
01/04:30am 8.2 4.4 5.8 85 1.1 WNW 15 22 8 12 1014.8 1014.7 4.6
01/04:00am 7.8 4.3 5.4 85 1.1 WNW 13 22 7 12 1014.5 1014.4 4.6
01/03:30am 7.8 4.3 5.6 86 1.0 WNW 13 20 7 11 1014.4 1014.3 4.6
01/03:00am 7.7 4.7 6.0 89 0.8 WNW 11 15 6 8 1014.2 1014.1 4.6
01/02:30am 7.3 4.9 6.9 97 0.2 WNW 9 13 5 7 1014.2 1014.1 4.6
01/02:00am 7.1 4.6 6.7 97 0.2 W 9 13 5 7 1014.4 1014.3 4.6
01/01:30am 7.4 5.0 7.0 97 0.2 W 9 15 5 8 1014.6 1014.5 4.4
01/01:00am 7.5 4.6 6.6 94 0.4 W 11 17 6 9 1014.8 1014.7 4.4
01/12:30am 8.0 4.9 7.1 94 0.4 W 13 17 7 9 1014.6 1014.5 4.4
01/12:00am 8.1 5.3 7.0 93 0.5 W 11 19 6 10 1014.7 1014.6 4.4
 
Date/Time
CST
Temp
°C
App
Temp
°C
Dew
Point
°C
Rel
Hum
%
Delta-T
°C
Wind Press
QNH
hPa
Press
MSL
hPa
Rain since
9am
mm
Dir  Spd
km/h
Gust
km/h
Spd
kts
Gust
kts
30/11:30pm 7.9 5.0 6.5 91 0.7 W 11 13 6 7 1014.7 1014.6 4.4
30/11:00pm 8.3 5.1 6.8 90 0.7 WSW 13 19 7 10 1014.7 1014.6 4.4
30/10:30pm 8.9 5.4 7.4 90 0.7 WSW 15 20 8 11 1015.0 1014.9 4.4
30/10:00pm 9.0 6.0 7.9 93 0.5 WSW 13 17 7 9 1014.7 1014.6 4.4
30/09:30pm 9.8 7.5 8.9 94 0.5 W 11 15 6 8 1014.6 1014.5 4.4
30/09:00pm 10.3 7.5 10.0 98 0.2 W 15 24 8 13 1014.3 1014.2 4.4
30/08:30pm 10.6 7.2 10.6 100 0.0 W 19 33 10 18 1014.1 1014.0 4.4
30/08:00pm 11.0 8.1 11.0 100 0.0 W 17 28 9 15 1013.8 1013.6 4.4
30/07:30pm 11.4 8.2 11.4 100 0.0 W 19 28 10 15 1013.2 1013.1 4.4
30/07:00pm 11.5 8.2 11.5 100 0.0 W 20 30 11 16 1012.6 1012.5 4.4
30/06:30pm 11.3 8.0 10.8 97 0.3 W 19 30 10 16 1012.2 1012.1 4.4
30/06:00pm 11.3 6.9 10.5 95 0.4 W 24 39 13 21 1011.8 1011.7 4.4
30/05:30pm 11.3 6.4 11.3 100 0.0 WSW 28 48 15 26 1011.4 1011.2 4.4
30/05:28pm 11.3 6.4 11.3 100 0.0 WSW 28 48 15 26 1011.4 1011.2 4.4
30/05:00pm 11.6 7.5 11.6 100 0.0 W 24 37 13 20 1011.2 1011.0 4.4
30/04:30pm 12.3 8.5 12.3 100 0.0 W 24 39 13 21 1010.3 1010.2 4.4
30/04:00pm 12.1 8.2 12.1 100 0.0 W 24 41 13 22 1010.5 1010.3 4.4
30/03:33pm 11.7 6.9 11.7 100 0.0 W 28 46 15 25 1010.8 1010.6 4.4
30/03:30pm 11.6 6.4 11.6 100 0.0 W 30 46 16 25 1010.9 1010.7 4.4
30/03:28pm 11.6 6.8 11.6 100 0.0 W 28 46 15 25 1010.8 1010.6 4.4
30/03:00pm 11.5 7.4 11.5 100 0.0 WNW 24 41 13 22 1010.6 1010.4 4.2
30/02:30pm 11.7 7.5 11.2 97 0.3 WNW 24 37 13 20 1010.6 1010.4 0.6
30/02:00pm 11.5 7.8 11.5 100 0.0 WNW 22 35 12 19 1010.6 1010.4 0.6
30/01:30pm 11.1 6.1 11.1 100 0.0 WNW 28 41 15 22 1010.8 1010.6 0.6
30/01:00pm 10.7 7.3 10.7 100 0.0 WNW 19 32 10 17 1010.8 1010.6 0.4
30/12:30pm 10.7 7.1 10.7 100 0.0 WNW 20 43 11 23 1010.8 1010.6 0.4
30/12:00pm 10.9 7.4 10.3 96 0.3 NW 19 30 10 16 1010.9 1010.7 0.0
30/11:30am 11.2 6.5 9.3 88 1.0 NW 24 33 13 18 1011.1 1010.9 0.0
30/11:00am 11.7 6.9 8.7 82 1.5 WNW 24 39 13 21 1011.2 1011.0 0.0
30/10:30am 12.1 7.4 9.1 82 1.5 WNW 24 35 13 19 1011.4 1011.2 0.0
30/10:00am 12.4 7.7 9.4 82 1.5 WNW 24 35 13 19 1011.2 1011.0 0.0
30/09:30am 11.6 7.4 8.3 80 1.7 WNW 20 35 11 19 1011.3 1011.1 0.0
30/09:00am 11.1 6.8 9.4 89 0.9 WNW 22 37 12 20 1011.3 1011.1 12.2
30/08:30am 10.2 6.8 9.0 92 0.6 WNW 17 30 9 16 1011.1 1010.9 12.2
30/08:00am 10.0 7.0 9.2 95 0.4 WNW 15 26 8 14 1011.1 1010.9 12.2
30/07:30am 9.9 6.0 8.8 93 0.6 WNW 19 30 10 16 1010.8 1010.6 12.2
30/07:00am 9.5 5.4 8.7 95 0.4 WNW 20 32 11 17 1010.8 1010.6 12.2
30/06:30am 9.3 5.6 9.3 100 0.0 WNW 19 26 10 14 1010.2 1010.1 12.2
30/06:00am 9.0 5.2 9.0 100 0.0 WNW 19 28 10 15 1009.9 1009.8 12.2
30/05:30am 9.4 5.5 9.4 100 0.0 WNW 20 33 11 18 1009.8 1009.7 12.2
30/05:00am 10.0 6.4 10.0 100 0.0 WNW 19 28 10 15 1009.5 1009.4 12.2
30/04:30am 9.9 6.1 9.9 100 0.0 WNW 20 32 11 17 1009.5 1009.4 12.2
30/04:00am 10.2 6.7 10.2 100 0.0 WNW 19 28 10 15 1009.5 1009.4 12.2
30/03:30am 10.2 7.1 10.2 100 0.0 W 17 26 9 14 1009.6 1009.5 12.2
30/03:00am 10.0 5.9 10.0 100 0.0 W 22 37 12 20 1009.7 1009.6 12.0
30/02:30am 10.4 6.8 10.4 100 0.0 WSW 20 33 11 18 1009.7 1009.6 11.8
30/02:00am 11.3 8.5 11.3 100 0.0 NW 17 30 9 16 1009.7 1009.6 10.6
30/01:30am 11.3 8.5 11.3 100 0.0 NW 17 26 9 14 1010.0 1009.9 10.4
30/01:00am 11.3 7.9 11.3 100 0.0 NW 20 28 11 15 1010.1 1010.0 10.4
30/12:30am 11.3 8.5 11.3 100 0.0 NNW 17 28 9 15 1010.7 1010.5 10.4
30/12:00am 11.3 8.5 11.3 100 0.0 NNW 17 32 9 17 1011.2 1011.0 10.0
 
Date/Time
CST
Temp
°C
App
Temp
°C
Dew
Point
°C
Rel
Hum
%
Delta-T
°C
Wind Press
QNH
hPa
Press
MSL
hPa
Rain since
9am
mm
Dir  Spd
km/h
Gust
km/h
Spd
kts
Gust
kts
29/11:30pm 11.4 8.2 11.4 100 0.0 NW 19 30 10 16 1011.6 1011.4 9.6
29/11:00pm 11.3 8.9 11.3 100 0.0 NNW 15 24 8 13 1011.7 1011.5 9.4
29/10:30pm 11.2 9.1 11.2 100 0.0 NNW 13 24 7 13 1012.0 1011.9 9.4
29/10:00pm 11.2 9.1 11.2 100 0.0 NNW 13 22 7 12 1012.4 1012.3 9.4
29/09:30pm 11.3 10.0 11.3 100 0.0 NNW 9 20 5 11 1012.4 1012.3 8.8
29/09:00pm 11.2 9.5 11.2 100 0.0 NNE 11 17 6 9 1012.1 1012.0 8.8
29/08:30pm 11.2 8.7 11.2 100 0.0 NE 15 24 8 13 1012.2 1012.1 8.8
29/08:00pm 11.4 9.4 11.4 100 0.0 NE 13 17 7 9 1012.5 1012.4 8.8
29/07:30pm 11.5 10.6 11.5 100 0.0 NNE 7 11 4 6 1012.8 1012.7 8.8
29/07:00pm 11.6 10.4 11.6 100 0.0 NNE 9 15 5 8 1013.0 1012.9 8.4
29/06:30pm 11.5 9.9 11.5 100 0.0 N 11 19 6 10 1012.9 1012.8 8.0
29/06:00pm 11.6 10.4 11.6 100 0.0 NNW 9 19 5 10 1013.0 1012.9 7.4
29/05:30pm 11.9 10.8 11.9 100 0.0 N 9 19 5 10 1013.0 1012.9 6.8
29/05:00pm 12.1 11.0 12.1 100 0.0 NNW 9 13 5 7 1013.1 1013.0 6.2
29/04:30pm 12.0 11.3 12.0 100 0.0 NNW 7 13 4 7 1012.9 1012.8 6.0
29/04:00pm 11.8 11.0 11.6 99 0.1 N 7 9 4 5 1013.1 1013.0 5.8
29/03:30pm 11.5 9.8 11.2 98 0.2 NNW 11 20 6 11 1013.5 1013.3 5.4
29/03:00pm 11.5 9.6 10.6 94 0.5 NW 11 17 6 9 1013.6 1013.4 2.0
29/02:30pm 12.5 9.1 9.3 81 1.6 NW 17 24 9 13 1013.8 1013.6 0.0
29/02:00pm 14.1 10.4 8.1 67 3.0 NW 17 26 9 14 1013.7 1013.5 0.0
29/01:30pm 13.6 10.2 7.8 68 2.9 WNW 15 26 8 14 1013.8 1013.6 0.0
29/01:00pm 14.1 8.9 7.4 64 3.4 NW 24 35 13 19 1014.4 1014.3 0.0
29/12:30pm 15.8 10.6 5.4 50 5.1 NW 22 39 12 21 1014.5 1014.4 0.0
29/12:00pm 15.8 11.0 4.5 47 5.4 NW 19 35 10 19 1014.9 1014.8 0.0
29/11:30am 15.6 10.8 4.9 49 5.1 NW 19 43 10 23 1015.6 1015.5 0.0
29/11:06am 16.0 9.4 4.4 46 5.5 NNW 28 46 15 25 1015.8 1015.7 0.0
29/11:00am 16.2 10.1 2.9 41 6.2 NNW 24 44 13 24 1015.9 1015.8 0.0
29/10:56am 16.5 11.2 3.2 41 6.2 NNW 20 43 11 23 1015.7 1015.6 0.0
29/10:30am 16.3 13.4 4.7 46 5.6 N 9 17 5 9 1015.7 1015.6 0.0
29/10:00am 15.5 12.1 5.7 52 4.8 NNE 13 22 7 12 1015.4 1015.3 0.0
29/09:30am 15.2 11.2 4.9 50 4.9 NNE 15 24 8 13 1015.1 1015.0 0.0
29/09:00am 14.6 10.7 5.4 54 4.4 NE 15 24 8 13 1015.2 1015.1 0.0
29/08:30am 13.7 10.3 5.8 59 3.8 NE 13 20 7 11 1015.7 1015.6 0.0
29/08:00am 13.1 9.5 5.0 58 3.8 NE 13 24 7 13 1015.7 1015.6 0.0
29/07:30am 12.9 7.9 3.8 54 4.2 NE 19 32 10 17 1015.7 1015.6 0.0
29/07:00am 12.4 7.4 3.4 54 4.1 NE 19 30 10 16 1015.4 1015.3 0.0
29/06:30am 11.8 6.8 3.6 57 3.7 NE 19 30 10 16 1015.2 1015.1 0.0
29/06:00am 11.6 6.6 3.6 58 3.6 NE 19 28 10 15 1015.2 1015.1 0.0
29/05:30am 12.0 7.3 3.3 55 3.9 NE 17 28 9 15 1015.2 1015.1 0.0
29/05:00am 12.1 7.4 3.3 55 4.0 NE 17 26 9 14 1015.0 1014.9 0.0
29/04:30am 11.9 7.6 3.4 56 3.8 NE 15 20 8 11 1015.3 1015.2 0.0
29/04:00am 11.7 7.8 3.5 57 3.7 NE 13 22 7 12 1015.6 1015.5 0.0
29/03:30am 11.4 7.1 3.2 57 3.7 NE 15 24 8 13 1015.7 1015.6 0.0
29/03:00am 11.4 6.7 3.2 57 3.7 NE 17 24 9 13 1016.0 1015.9 0.0
29/02:30am 11.6 6.9 3.1 56 3.8 NE 17 30 9 16 1016.7 1016.6 0.0
29/02:00am 11.8 7.1 3.1 55 3.9 NNE 17 26 9 14 1016.9 1016.8 0.0
29/01:30am 11.8 6.6 3.3 56 3.8 NE 20 30 11 16 1016.6 1016.5 0.0
29/01:00am 11.6 6.6 3.4 57 3.7 NE 19 30 10 16 1016.9 1016.8 0.0
29/12:30am 12.0 6.4 3.3 55 3.9 NE 22 37 12 20 1017.3 1017.2 0.0
29/12:00am 11.5 6.3 3.8 59 3.5 NE 20 33 11 18 1017.6 1017.5 0.0
 
Date/Time
CST
Temp
°C
App
Temp
°C
Dew
Point
°C
Rel
Hum
%
Delta-T
°C
Wind Press
QNH
hPa
Press
MSL
hPa
Rain since
9am
mm
Dir  Spd
km/h
Gust
km/h
Spd
kts
Gust
kts
28/11:30pm 11.5 6.5 3.8 59 3.5 NE 19 26 10 14 1018.1 1018.0 0.0
28/11:00pm 12.0 7.1 4.0 58 3.7 NE 19 26 10 14 1018.3 1018.2 0.0
28/10:30pm 12.6 8.0 3.8 55 4.0 ENE 17 26 9 14 1018.3 1018.2 0.0
28/10:00pm 13.0 8.3 3.4 52 4.4 ENE 17 24 9 13 1018.8 1018.8 0.0
28/09:30pm 13.2 8.5 3.0 50 4.6 ENE 17 22 9 12 1019.4 1019.3 0.0
28/09:00pm 13.7 9.3 2.9 48 4.9 NE 15 22 8 12 1019.9 1019.8 0.0
28/08:30pm 14.4 9.9 2.3 44 5.4 ENE 15 20 8 11 1019.9 1019.8 0.0
28/08:00pm 14.4 10.5 3.2 47 5.1 ENE 13 15 7 8 1019.6 1019.5 0.0
28/07:30pm 14.5 11.1 3.9 49 4.9 ENE 11 15 6 8 1019.2 1019.1 0.0
28/07:00pm 14.3 10.9 4.0 50 4.8 NE 11 15 6 8 1018.9 1018.9 0.0
28/06:30pm 15.1 11.7 3.9 47 5.2 ENE 11 15 6 8 1018.8 1018.8 0.0
28/06:00pm 15.1 11.4 4.2 48 5.1 NE 13 17 7 9 1018.7 1018.7 0.0
28/05:30pm 15.8 12.1 4.5 47 5.4 NE 13 19 7 10 1018.8 1018.8 0.0
28/05:00pm 16.7 12.5 3.7 42 6.1 NE 15 28 8 15 1018.8 1018.8 0.0
28/04:30pm 17.1 12.9 3.8 41 6.3 NE 15 30 8 16 1018.8 1018.8 0.0
28/04:00pm 17.3 12.6 3.2 39 6.6 NE 17 30 9 16 1018.9 1018.9 0.0
28/03:30pm 17.6 12.9 5.2 44 6.1 NE 19 32 10 17 1019.1 1019.0 0.0
28/03:00pm 18.0 13.8 5.9 45 6.0 NE 17 26 9 14 1019.1 1019.0 0.0
28/02:30pm 17.5 13.7 5.8 46 5.8 NE 15 33 8 18 1019.6 1019.5 0.0
28/02:00pm 17.3 12.8 5.9 47 5.7 NNE 19 28 10 15 1020.3 1020.2 0.0
28/01:30pm 17.3 12.8 6.2 48 5.5 NE 19 33 10 18 1020.6 1020.5 0.0
28/01:00pm 17.7 13.8 7.2 50 5.4 ENE 17 28 9 15 1021.0 1020.9 0.0
28/12:30pm 16.2 12.3 5.5 49 5.2 ENE 15 24 8 13 1021.3 1021.3 0.0

Other formats

Comma delimited format used in spreadsheet applications
http://www.bom.gov.au/fwo/IDS60801/IDS60801.94683.axf

JavaScript Object Notation format (JSON) in row-major order
http://www.bom.gov.au/fwo/IDS60801/IDS60801.94683.json

Data quality

Most of these data are generated automatically and are frequently updated. Quality checks on data are not normally performed. It is possible for incorrect values to appear. Refer to information at About Latest Weather Observations and please check the disclaimer before using these data.